Terminal Aerodrome Forecast
Issued by NWS

Home | Current Version | Previous Version | Text Only | Print | Product List | Glossary On
Versions: 1 2 3 4 5 6 7 8 9 10 11 12 13 14 15 16 17 18 19
466
FTUS43 KICT 221413 AAA
TAFCNU
TAF AMD
KCNU 221413Z 2214/2312 01013KT P6SM OVC012
      TEMPO 2214/2217 5SM -RA OVC008
     FM221700 02017KT P6SM OVC008
     FM222300 01009KT P6SM SCT010 OVC035
     FM230100 01009KT P6SM OVC040=

USA.gov is the U.S. government's official web portal to all federal, state and local government web resources and services.